Time;durP1;ratioP1;P1;durP2;ratioP2;P2;SDS_P1;SDS_P2;PMS_P1;PMS_P2;Temp;Humidity;BMP_temperature;BMP_pressure;BME280_temperature;BME280_humidity;BME280_pressure;Samples;Min_cycle;Max_cycle;Signal;HPM_P1;HPM_P2
2022/05/05 00:01:08;;;;;;;5.18;4.55;;;9.60;99.90;10.10;96945.00;;;;5107878;28;20384;-70
2022/05/05 00:03:38;;;;;;;3.90;3.60;;;9.60;99.90;10.10;96943.00;;;;5110497;28;20209;-70
2022/05/05 00:06:06;;;;;;;4.00;3.70;;;9.60;99.90;10.20;96950.00;;;;5111765;22;20242;-66
2022/05/05 00:08:36;;;;;;;4.37;3.80;;;9.60;99.90;10.20;96937.00;;;;5072131;28;20253;-67
2022/05/05 00:16:37;;;;;;;4.70;3.93;;;9.50;99.90;10.00;96944.00;;;;5060503;28;20192;-67
2022/05/05 00:19:06;;;;;;;4.10;3.70;;;9.50;99.90;9.70;96933.00;;;;5054361;28;20207;-66
2022/05/05 00:21:35;;;;;;;3.80;3.50;;;9.40;99.90;9.60;96936.00;;;;5069341;28;20278;-66
2022/05/05 00:24:05;;;;;;;6.30;4.97;;;9.30;99.90;9.90;96937.00;;;;5069098;28;20286;-66
2022/05/05 00:26:34;;;;;;;4.07;3.77;;;9.30;99.90;10.00;96941.00;;;;5063581;28;20286;-65
2022/05/05 00:29:03;;;;;;;4.90;4.30;;;9.30;99.90;10.10;96938.00;;;;5065164;28;20218;-66
2022/05/05 00:31:32;;;;;;;4.20;3.67;;;9.30;99.90;10.10;96937.00;;;;5060488;28;20191;-66
2022/05/05 00:34:01;;;;;;;3.80;3.50;;;9.30;99.90;10.10;96940.00;;;;5066199;28;20204;-66
2022/05/05 00:36:29;;;;;;;5.60;3.87;;;9.40;99.90;9.80;96931.00;;;;5062477;28;20245;-65
2022/05/05 00:38:58;;;;;;;4.60;3.90;;;9.30;99.90;9.70;96933.00;;;;5062938;28;20271;-66
2022/05/05 00:41:33;;;;;;;3.83;3.13;;;9.30;99.90;9.30;96934.00;;;;5065455;28;20274;-67
2022/05/05 00:44:04;;;;;;;4.90;3.60;;;9.20;99.90;9.30;96938.00;;;;5064090;28;20278;-66
2022/05/05 00:46:34;;;;;;;4.33;3.80;;;9.10;99.90;9.50;96935.00;;;;5069402;28;20200;-66
2022/05/05 00:49:03;;;;;;;4.60;3.40;;;9.00;99.90;9.10;96920.00;;;;5068967;28;20234;-66
2022/05/05 00:51:32;;;;;;;4.33;3.93;;;8.90;99.90;9.10;96927.00;;;;5069216;28;20215;-66
2022/05/05 00:54:01;;;;;;;3.67;3.37;;;8.90;99.90;9.30;96924.00;;;;5069523;28;20200;-66
2022/05/05 00:56:31;;;;;;;5.57;3.77;;;8.90;99.90;9.00;96917.00;;;;5068627;28;20231;-65
2022/05/05 00:59:02;;;;;;;5.43;4.53;;;8.80;99.90;8.90;96918.00;;;;5069090;28;20749;-65
2022/05/05 01:01:32;;;;;;;5.33;4.43;;;8.70;99.90;9.10;96926.00;;;;5068939;28;20207;-66
2022/05/05 01:04:03;;;;;;;4.07;3.77;;;8.70;99.90;9.30;96926.00;;;;5069306;28;20276;-66
2022/05/05 01:06:31;;;;;;;4.73;4.20;;;8.70;99.90;9.50;96923.00;;;;5063395;28;20207;-66
2022/05/05 01:09:05;;;;;;;4.77;4.37;;;8.70;99.90;9.60;96922.00;;;;5068621;28;20293;-65
2022/05/05 01:11:35;;;;;;;3.60;3.17;;;8.80;99.90;9.40;96924.00;;;;5070152;28;20204;-67
2022/05/05 01:14:04;;;;;;;5.20;3.90;;;8.80;99.90;9.20;96919.00;;;;5072865;28;20275;-66
2022/05/05 01:16:33;;;;;;;4.07;3.67;;;8.70;99.90;9.10;96922.00;;;;5072302;28;20215;-66
2022/05/05 01:19:02;;;;;;;3.77;3.47;;;8.70;99.90;8.80;96922.00;;;;5071707;28;20216;-66
2022/05/05 01:21:32;;;;;;;3.43;3.20;;;8.60;99.90;8.40;96913.00;;;;5072341;28;20192;-67
2022/05/05 01:24:00;;;;;;;4.10;3.63;;;8.40;99.90;8.90;96921.00;;;;5072223;28;20287;-66
2022/05/05 01:29:17;;;;;;;3.97;3.67;;;8.50;99.90;9.30;96933.00;;;;5072444;28;20302;-66
2022/05/05 01:31:46;;;;;;;4.50;4.10;;;8.50;99.90;9.30;96930.00;;;;5072354;28;20246;-65
2022/05/05 01:34:15;;;;;;;3.87;3.47;;;8.50;99.90;9.20;96934.00;;;;5072120;28;20215;-64
2022/05/05 01:36:44;;;;;;;4.57;4.17;;;8.60;99.90;9.20;96926.00;;;;5067467;28;20198;-66
2022/05/05 01:39:13;;;;;;;4.13;3.70;;;8.60;99.90;9.10;96933.00;;;;5071895;28;20206;-66
2022/05/05 01:41:41;;;;;;;4.63;3.97;;;8.50;99.90;9.20;96931.00;;;;5072198;28;20192;-66
2022/05/05 01:44:10;;;;;;;3.67;3.37;;;8.50;99.90;9.20;96939.00;;;;5072220;28;20287;-66
2022/05/05 01:46:41;;;;;;;4.53;3.03;;;8.50;99.90;9.30;96931.00;;;;5071121;28;20227;-67
2022/05/05 01:49:09;;;;;;;3.40;3.10;;;8.50;99.90;9.20;96929.00;;;;5072322;28;20200;-65
2022/05/05 01:51:39;;;;;;;4.17;3.70;;;8.50;99.90;8.70;96932.00;;;;5072393;28;20196;-66
2022/05/05 01:54:09;;;;;;;3.67;3.37;;;8.50;99.90;8.80;96935.00;;;;5072158;28;20202;-65
2022/05/05 01:56:37;;;;;;;5.10;3.57;;;8.40;99.90;8.90;96928.00;;;;5071997;28;20200;-66
2022/05/05 01:59:06;;;;;;;4.47;4.07;;;8.30;99.90;9.00;96932.00;;;;5072147;28;20283;-66
2022/05/05 02:01:34;;;;;;;5.00;3.33;;;8.30;99.90;9.10;96924.00;;;;5071719;28;20246;-65
2022/05/05 02:04:03;;;;;;;4.60;4.03;;;8.40;99.90;9.00;96931.00;;;;5070781;28;20430;-67
2022/05/05 02:06:32;;;;;;;4.00;3.70;;;8.40;99.90;8.90;96938.00;;;;5071946;28;20210;-66
2022/05/05 02:09:00;;;;;;;5.13;3.73;;;8.30;99.90;8.70;96932.00;;;;5071956;28;20298;-66
2022/05/05 02:11:30;;;;;;;4.40;4.00;;;8.30;99.90;8.40;96928.00;;;;5071281;28;20287;-66
2022/05/05 02:13:59;;;;;;;5.43;4.40;;;8.20;99.90;8.20;96930.00;;;;5071925;28;20279;-66
2022/05/05 02:16:27;;;;;;;3.60;3.30;;;8.10;99.90;7.90;96916.00;;;;5070942;28;20216;-66
2022/05/05 02:18:56;;;;;;;4.73;3.53;;;7.90;99.90;8.10;96926.00;;;;5071263;28;20212;-65
2022/05/05 02:21:24;;;;;;;4.47;4.07;;;7.80;99.90;7.80;96929.00;;;;5071733;28;20239;-66
2022/05/05 02:23:53;;;;;;;4.33;3.93;;;7.70;99.90;7.70;96922.00;;;;5070647;28;20290;-66
2022/05/05 02:26:22;;;;;;;3.70;3.40;;;7.60;99.90;8.10;96930.00;;;;5070039;28;20216;-66
2022/05/05 02:28:51;;;;;;;4.63;4.13;;;7.60;99.90;8.30;96928.00;;;;5071008;28;20227;-65
2022/05/05 02:31:21;;;;;;;5.95;5.20;;;7.40;99.90;8.40;96927.00;;;;5070138;28;20419;-65
2022/05/05 02:33:49;;;;;;;4.63;4.23;;;7.70;99.90;8.20;96927.00;;;;5070754;28;20274;-66
2022/05/05 02:39:04;;;;;;;4.27;3.87;;;7.70;99.90;8.20;96921.00;;;;5071280;28;20192;-67
2022/05/05 02:41:35;;;;;;;4.90;4.17;;;7.70;99.90;7.70;96918.00;;;;5057756;28;20203;-65
2022/05/05 02:44:05;;;;;;;3.90;3.60;;;7.60;99.90;7.60;96913.00;;;;5071554;28;20198;-67
2022/05/05 02:46:34;;;;;;;4.50;3.23;;;7.50;99.90;7.90;96915.00;;;;5070856;28;20227;-66
2022/05/05 02:49:03;;;;;;;4.07;3.67;;;7.50;99.90;7.90;96920.00;;;;5070773;28;20219;-65
2022/05/05 02:51:31;;;;;;;5.73;3.80;;;7.50;99.90;7.60;96919.00;;;;5070703;28;20245;-66
2022/05/05 02:56:46;;;;;;;3.60;3.30;;;7.40;99.90;7.60;96921.00;;;;5070884;28;20199;-66
2022/05/05 02:59:15;;;;;;;4.50;4.10;;;7.30;99.90;7.60;96919.00;;;;5063060;28;20275;-67
2022/05/05 03:01:44;;;;;;;5.93;4.67;;;7.30;99.90;7.70;96912.00;;;;5070538;28;20204;-66
2022/05/05 03:04:13;;;;;;;4.40;4.00;;;7.30;99.90;7.80;96919.00;;;;5070565;28;20222;-66
2022/05/05 03:06:41;;;;;;;5.10;4.13;;;7.30;99.90;7.70;96912.00;;;;5070172;28;20219;-66
2022/05/05 03:09:10;;;;;;;5.30;4.23;;;7.30;99.90;7.70;96926.00;;;;5069598;28;20203;-66
2022/05/05 03:11:38;;;;;;;4.27;3.87;;;7.30;99.90;7.70;96921.00;;;;5057561;28;20303;-67
2022/05/05 03:14:07;;;;;;;4.47;4.00;;;7.30;99.90;7.70;96919.00;;;;5070654;28;20683;-66
2022/05/05 03:16:37;;;;;;;6.50;3.80;;;7.20;99.90;7.80;96914.00;;;;5056684;28;20196;-66
2022/05/05 03:19:05;;;;;;;5.60;4.70;;;7.20;99.90;7.50;96903.00;;;;5070564;28;20200;-65
2022/05/05 03:21:34;;;;;;;5.27;4.77;;;7.20;99.90;7.70;96908.00;;;;5070382;28;20279;-66
2022/05/05 03:24:03;;;;;;;5.47;4.93;;;7.20;99.90;8.00;96909.00;;;;5070309;28;20206;-67
2022/05/05 03:26:32;;;;;;;5.03;4.47;;;7.40;99.90;7.80;96915.00;;;;5069917;28;20204;-65
2022/05/05 03:29:00;;;;;;;5.77;4.53;;;7.40;99.90;7.80;96910.00;;;;5070103;28;20200;-66
2022/05/05 03:31:29;;;;;;;5.10;4.60;;;7.40;99.90;7.80;96915.00;;;;5069628;28;20235;-66
2022/05/05 03:33:59;;;;;;;5.10;4.57;;;7.40;99.90;7.70;96917.00;;;;5066075;28;20199;-66
2022/05/05 03:36:27;;;;;;;8.47;4.63;;;7.30;99.90;7.90;96915.00;;;;5068644;28;20226;-66
2022/05/05 03:38:56;;;;;;;5.80;5.00;;;7.40;99.90;8.10;96926.00;;;;5069698;28;20279;-66
2022/05/05 03:41:24;;;;;;;7.10;5.47;;;7.40;99.90;8.30;96923.00;;;;5069916;28;20279;-66
2022/05/05 03:43:53;;;;;;;5.73;4.77;;;7.50;99.90;7.90;96921.00;;;;5070355;28;20196;-66
2022/05/05 03:46:22;;;;;;;5.63;4.90;;;7.50;99.90;8.00;96927.00;;;;5070069;28;20214;-67
2022/05/05 03:48:52;;;;;;;5.23;4.37;;;7.50;99.90;7.90;96930.00;;;;5069338;28;20192;-65
2022/05/05 03:51:22;;;;;;;5.87;3.87;;;7.50;99.90;7.60;96919.00;;;;5069303;28;20230;-66
2022/05/05 03:53:50;;;;;;;5.43;4.73;;;7.40;99.90;7.60;96931.00;;;;5069914;28;20257;-65
2022/05/05 03:56:19;;;;;;;5.20;4.70;;;7.30;99.90;7.70;96925.00;;;;5068592;28;20299;-66
2022/05/05 03:58:47;;;;;;;6.40;4.43;;;7.30;99.90;7.80;96933.00;;;;5069838;28;20206;-67
2022/05/05 04:01:16;;;;;;;9.90;4.90;;;7.30;99.90;8.00;96928.00;;;;5066606;28;20214;-66
2022/05/05 04:03:45;;;;;;;5.93;5.30;;;7.30;99.90;8.10;96936.00;;;;5058744;28;20212;-65
2022/05/05 04:06:16;;;;;;;4.80;4.40;;;7.40;99.90;8.00;96931.00;;;;5060107;28;20303;-66
2022/05/05 04:08:46;;;;;;;5.63;4.80;;;7.40;99.90;7.80;96934.00;;;;5056823;28;20209;-65
2022/05/05 04:11:14;;;;;;;4.97;4.47;;;7.40;99.90;7.70;96937.00;;;;5054413;28;20223;-65
2022/05/05 04:13:43;;;;;;;4.87;4.37;;;7.40;99.90;7.70;96935.00;;;;5061229;28;20203;-66
2022/05/05 04:16:12;;;;;;;7.60;5.67;;;7.40;99.90;7.70;96940.00;;;;5056211;28;20250;-67
2022/05/05 04:18:40;;;;;;;9.67;5.87;;;7.40;99.90;7.90;96941.00;;;;5056075;28;20243;-66
2022/05/05 04:21:09;;;;;;;5.60;5.07;;;7.40;99.90;8.00;96960.00;;;;5066081;28;20227;-67
2022/05/05 04:23:38;;;;;;;6.20;5.27;;;7.50;99.90;8.10;96947.00;;;;5052426;28;20203;-66
2022/05/05 04:26:11;;;;;;;7.40;5.90;;;;;8.30;96958.00;;;;5058513;28;20239;-67
2022/05/05 04:28:40;;;;;;;7.23;6.43;;;7.80;99.90;8.30;96952.00;;;;5062381;28;20212;-67
2022/05/05 04:31:12;;;;;;;7.27;6.13;;;7.70;99.90;8.60;96957.00;;;;5054375;28;20244;-66
2022/05/05 04:33:41;;;;;;;6.10;5.07;;;7.80;99.90;8.40;96954.00;;;;5058571;28;20191;-67
2022/05/05 04:36:11;;;;;;;8.00;5.00;;;7.80;99.90;8.20;96957.00;;;;5056485;28;20256;-67
2022/05/05 04:38:39;;;;;;;5.43;4.93;;;7.80;99.90;8.30;96962.00;;;;5057715;28;20284;-66
2022/05/05 04:41:08;;;;;;;7.30;5.87;;;7.80;99.90;8.70;96969.00;;;;5060496;28;20291;-65
2022/05/05 04:43:38;;;;;;;8.57;7.70;;;7.90;99.90;9.00;96972.00;;;;5056874;28;20196;-67
2022/05/05 04:46:07;;;;;;;9.00;7.43;;;8.00;99.90;9.10;96965.00;;;;5049879;28;20228;-66
2022/05/05 04:48:35;;;;;;;11.10;7.67;;;8.20;99.90;9.50;96968.00;;;;5069342;28;20274;-66
2022/05/05 04:51:04;;;;;;;10.13;8.00;;;8.30;99.90;9.40;96970.00;;;;5062596;28;20225;-66
2022/05/05 04:53:32;;;;;;;10.60;7.70;;;8.50;99.90;9.60;96974.00;;;;5073122;28;20278;-66
2022/05/05 04:56:02;;;;;;;8.60;7.70;;;8.60;99.90;9.60;96975.00;;;;5070019;28;20298;-66
2022/05/05 04:58:34;;;;;;;10.67;6.80;;;8.70;99.90;9.60;96960.00;;;;5062888;28;20200;-66
2022/05/05 05:01:04;;;;;;;7.30;5.80;;;8.80;99.90;9.50;96982.00;;;;5064444;28;20272;-66
2022/05/05 05:03:39;;;;;;;7.33;6.50;;;8.90;99.90;9.90;96978.00;;;;5057943;28;20193;-66
2022/05/05 05:06:10;;;;;;;13.70;9.60;;;9.00;99.90;10.10;96981.00;;;;5072488;28;20357;-65
2022/05/05 05:08:40;;;;;;;12.53;8.17;;;9.10;99.90;10.30;96982.00;;;;5069460;28;20206;-66
2022/05/05 05:11:08;;;;;;;8.50;6.77;;;9.20;99.90;10.20;96973.00;;;;5068200;28;20200;-67
2022/05/05 05:13:37;;;;;;;6.60;5.90;;;9.40;99.90;10.30;96975.00;;;;5072454;28;20196;-66
2022/05/05 05:16:07;;;;;;;6.10;5.57;;;9.40;99.90;10.20;96977.00;;;;5072659;28;20223;-66
2022/05/05 05:18:43;;;;;;;6.93;6.13;;;9.50;99.90;10.60;96968.00;;;;5072390;28;20202;-66
2022/05/05 05:21:12;;;;;;;6.40;5.80;;;9.60;99.90;10.70;96977.00;;;;5072567;28;20192;-67
2022/05/05 05:23:40;;;;;;;6.20;5.53;;;9.70;99.90;10.80;96972.00;;;;5072524;28;20207;-66
2022/05/05 05:26:09;;;;;;;6.37;5.50;;;9.80;99.90;10.90;96976.00;;;;5070176;28;20217;-67
2022/05/05 05:28:38;;;;;;;6.20;5.60;;;9.90;99.90;11.20;96960.00;;;;5067982;28;20192;-66
2022/05/05 05:31:09;;;;;;;6.93;5.40;;;10.10;99.90;11.60;96971.00;;;;5065826;28;20296;-66
2022/05/05 05:33:37;;;;;;;6.97;6.27;;;10.30;99.90;11.80;96976.00;;;;5067673;28;20203;-66
2022/05/05 05:36:06;;;;;;;6.13;5.53;;;10.50;99.90;11.80;96971.00;;;;5068576;28;20294;-66
2022/05/05 05:38:35;;;;;;;6.30;5.70;;;10.60;99.90;11.80;96973.00;;;;5063196;28;20204;-65
2022/05/05 05:41:04;;;;;;;7.10;5.90;;;10.70;99.90;12.20;96982.00;;;;5064410;28;20196;-66
2022/05/05 05:43:32;;;;;;;8.03;6.87;;;10.90;99.90;12.10;96996.00;;;;5063085;28;20242;-66
2022/05/05 05:46:01;;;;;;;7.40;6.00;;;11.10;99.90;12.20;96993.00;;;;5069137;28;20212;-66
2022/05/05 05:48:31;;;;;;;8.67;7.40;;;11.20;99.90;12.30;96990.00;;;;5065110;28;20200;-66
2022/05/05 05:50:59;;;;;;;11.37;7.93;;;11.30;99.90;12.60;96985.00;;;;5059764;28;20193;-66
2022/05/05 05:53:28;;;;;;;9.07;7.50;;;11.40;99.90;12.90;96999.00;;;;5068737;28;20251;-66
2022/05/05 05:55:57;;;;;;;8.77;7.87;;;11.60;99.90;13.00;96989.00;;;;5063933;28;20216;-66
2022/05/05 05:58:25;;;;;;;7.33;6.63;;;11.70;99.90;13.30;96987.00;;;;5065313;28;20202;-66
2022/05/05 06:00:54;;;;;;;8.97;7.37;;;11.80;99.90;13.60;96982.00;;;;5064569;28;20188;-66
2022/05/05 06:06:10;;;;;;;8.20;6.80;;;12.30;99.90;14.00;96997.00;;;;5082239;22;20235;-86
2022/05/05 06:08:38;;;;;;;9.33;6.77;;;12.50;99.90;14.10;96999.00;;;;5064149;28;20238;-86
2022/05/05 06:11:09;;;;;;;7.43;6.67;;;12.70;99.90;14.30;97002.00;;;;5076206;28;20706;-85
2022/05/05 06:13:37;;;;;;;9.60;7.37;;;12.90;99.90;14.40;97008.00;;;;5064883;28;20261;-86
2022/05/05 06:16:09;;;;;;;7.40;5.97;;;13.10;99.90;14.50;97012.00;;;;5062708;28;20191;-85
2022/05/05 06:18:38;;;;;;;6.77;5.70;;;13.20;99.90;14.80;97018.00;;;;5066137;28;20261;-87
2022/05/05 06:21:09;;;;;;;6.47;5.63;;;13.40;99.90;14.90;97016.00;;;;5062152;28;20210;-85
2022/05/05 06:23:38;;;;;;;8.90;6.53;;;13.60;99.90;15.10;97026.00;;;;5062702;28;20191;-86
2022/05/05 06:26:07;;;;;;;6.43;5.40;;;13.70;99.90;15.20;97026.00;;;;5063993;28;20275;-86
2022/05/05 06:28:36;;;;;;;8.10;6.50;;;13.80;99.90;15.30;97022.00;;;;5056073;28;20243;-86
2022/05/05 06:31:05;;;;;;;6.33;4.67;;;14.00;99.90;15.60;97014.00;;;;5059824;28;20207;-86
2022/05/05 06:33:33;;;;;;;5.87;4.77;;;14.10;99.90;15.60;97020.00;;;;5073762;28;20223;-85
2022/05/05 06:36:02;;;;;;;6.53;5.83;;;14.30;99.90;15.80;97019.00;;;;5075685;28;20233;-85
2022/05/05 06:38:32;;;;;;;6.23;5.50;;;14.40;99.90;16.00;97029.00;;;;5074084;28;20208;-85
2022/05/05 06:41:01;;;;;;;6.13;5.53;;;14.50;99.90;16.10;97027.00;;;;5071145;28;20188;-85
2022/05/05 06:43:30;;;;;;;7.27;6.33;;;14.70;99.90;16.10;97031.00;;;;5065191;28;20235;-84
2022/05/05 06:45:59;;;;;;;8.37;6.03;;;14.80;99.90;16.10;97035.00;;;;5068968;28;20196;-85
2022/05/05 06:48:28;;;;;;;6.70;5.63;;;13.80;99.90;16.00;97030.00;;;;5064716;28;20227;-84
2022/05/05 06:50:56;;;;;;;5.93;5.33;;;14.90;99.90;15.70;97032.00;;;;5059241;28;20196;-85
2022/05/05 06:53:25;;;;;;;8.33;5.03;;;14.80;99.90;15.80;97028.00;;;;5075937;28;20223;-84
2022/05/05 06:55:57;;;;;;;6.47;5.20;;;14.80;99.90;15.90;97021.00;;;;5069970;28;20184;-85
2022/05/05 06:58:26;;;;;;;6.57;5.90;;;14.80;99.90;16.10;97024.00;;;;5063586;28;20274;-85
2022/05/05 07:03:40;;;;;;;5.47;4.90;;;15.00;99.90;16.50;97038.00;;;;5071242;22;20240;-67
2022/05/05 07:06:10;;;;;;;6.03;5.43;;;15.10;99.90;16.70;97026.00;;;;5065989;28;20188;-67
2022/05/05 07:11:26;;;;;;;6.60;5.17;;;15.30;99.90;16.70;97015.00;;;;5061333;28;20196;-68
2022/05/05 07:13:55;;;;;;;7.17;5.00;;;15.40;99.90;16.80;97026.00;;;;5069536;28;20227;-68
2022/05/05 07:16:23;;;;;;;5.30;4.80;;;15.50;99.90;17.00;97027.00;;;;5070127;28;20191;-67
2022/05/05 07:18:52;;;;;;;7.37;5.70;;;15.60;99.90;17.20;97022.00;;;;5069286;28;20206;-68
2022/05/05 07:21:22;;;;;;;5.13;4.60;;;15.80;99.90;17.20;97017.00;;;;5070272;28;20245;-68
2022/05/05 07:23:50;;;;;;;5.97;5.37;;;15.90;99.90;17.40;97007.00;;;;5070180;28;20226;-67
2022/05/05 07:26:19;;;;;;;7.47;6.37;;;16.00;99.90;17.50;97017.00;;;;5070199;28;20184;-68
2022/05/05 07:28:49;;;;;;;5.83;5.23;;;16.10;99.90;17.60;97031.00;;;;5065249;28;20232;-68
2022/05/05 07:31:18;;;;;;;5.77;5.23;;;16.20;99.90;17.70;97026.00;;;;5058468;28;20192;-68
2022/05/05 07:33:47;;;;;;;6.17;5.60;;;16.30;99.90;17.80;97022.00;;;;5069191;28;20242;-67
2022/05/05 07:36:15;;;;;;;6.60;5.00;;;16.40;99.90;18.00;97031.00;;;;5069971;28;20235;-68
2022/05/05 07:38:44;;;;;;;6.47;5.67;;;16.60;99.90;17.80;97030.00;;;;5069207;28;20282;-68
2022/05/05 07:41:12;;;;;;;6.03;5.07;;;16.70;99.90;18.00;97033.00;;;;5067504;28;20279;-68
2022/05/05 07:43:41;;;;;;;5.30;4.80;;;16.70;99.90;17.90;97040.00;;;;5068435;28;20259;-67
2022/05/05 07:46:11;;;;;;;5.40;4.90;;;16.80;99.90;18.30;97038.00;;;;5067376;28;20191;-68
2022/05/05 07:48:43;;;;;;;7.30;5.17;;;16.90;99.90;18.20;97040.00;;;;5068486;28;20223;-68
2022/05/05 07:51:12;;;;;;;6.93;4.77;;;16.90;99.90;18.00;97047.00;;;;5076063;28;20195;-67
2022/05/05 07:53:40;;;;;;;7.77;4.87;;;17.00;99.90;18.30;97053.00;;;;5075049;28;20223;-68
2022/05/05 07:56:09;;;;;;;6.57;4.70;;;17.00;99.90;18.00;97046.00;;;;5071586;28;20291;-68
2022/05/05 07:58:37;;;;;;;5.50;4.97;;;17.00;99.90;18.50;97056.00;;;;5069295;28;20196;-68
2022/05/05 08:01:06;;;;;;;6.20;5.30;;;17.10;99.90;18.70;97059.00;;;;5068171;28;20234;-68
2022/05/05 08:03:36;;;;;;;5.67;5.17;;;17.20;99.90;18.90;97056.00;;;;5065280;28;20222;-68
2022/05/05 08:06:05;;;;;;;5.47;4.97;;;17.40;99.90;18.80;97058.00;;;;5068859;28;20195;-67
2022/05/05 08:08:34;;;;;;;6.67;4.57;;;17.50;99.90;19.20;97060.00;;;;5068657;28;20206;-67
2022/05/05 08:11:02;;;;;;;7.57;6.03;;;17.60;99.90;19.40;97062.00;;;;5066568;28;20226;-68
2022/05/05 08:13:33;;;;;;;5.80;5.20;;;17.80;99.90;19.50;97061.00;;;;5062072;28;20228;-67
2022/05/05 08:16:02;;;;;;;6.10;5.50;;;17.90;99.90;19.60;97054.00;;;;5067545;28;20275;-67
2022/05/05 08:18:30;;;;;;;6.10;4.73;;;18.00;99.90;19.80;97063.00;;;;5068262;28;20192;-68
2022/05/05 08:21:00;;;;;;;4.83;4.33;;;18.20;99.90;20.00;97070.00;;;;5066132;28;20573;-67
2022/05/05 08:23:29;;;;;;;5.00;4.50;;;18.40;99.90;20.00;97065.00;;;;5069065;28;20223;-67
2022/05/05 08:28:43;;;;;;;4.87;4.47;;;18.60;99.90;20.20;97070.00;;;;5064242;28;20188;-67
2022/05/05 08:31:12;;;;;;;9.50;4.93;;;18.70;99.90;20.20;97067.00;;;;5063388;28;20210;-68
2022/05/05 08:33:41;;;;;;;10.40;5.10;;;18.70;99.90;20.20;97071.00;;;;5061646;28;20225;-68
2022/05/05 08:36:11;;;;;;;4.70;4.20;;;18.90;99.90;20.40;97071.00;;;;5060366;28;20228;-68
2022/05/05 08:38:40;;;;;;;4.77;4.30;;;18.90;99.90;20.30;97063.00;;;;5063068;28;20253;-67
2022/05/05 08:41:12;;;;;;;5.27;4.80;;;19.00;99.90;20.40;97052.00;;;;5066871;28;20228;-68
2022/05/05 08:43:41;;;;;;;5.07;4.57;;;19.10;99.90;20.40;97064.00;;;;5064635;28;20274;-68
2022/05/05 08:46:28;;;;;;;5.80;4.50;;;19.20;99.90;20.70;97055.00;;;;5058716;28;20212;-68
2022/05/05 08:49:03;;;;;;;4.53;4.13;;;19.30;99.90;20.60;97059.00;;;;5064866;28;20271;-68
2022/05/05 08:51:44;;;;;;;5.60;5.10;;;19.40;99.90;21.20;97051.00;;;;5059852;28;20279;-68
2022/05/05 08:54:16;;;;;;;5.30;4.33;;;19.50;99.90;21.50;97058.00;;;;5065260;28;20246;-69
2022/05/05 08:56:45;;;;;;;4.87;3.90;;;19.70;99.90;20.80;97045.00;;;;5068542;28;20199;-68
2022/05/05 08:59:13;;;;;;;3.63;3.33;;;19.70;99.90;21.40;97045.00;;;;5068954;28;20283;-68
2022/05/05 09:01:42;;;;;;;5.97;4.00;;;19.80;99.90;21.80;97052.00;;;;5060675;28;20204;-68
2022/05/05 09:04:11;;;;;;;4.90;3.70;;;20.00;99.90;21.90;97045.00;;;;5058330;28;20270;-68
2022/05/05 09:06:47;;;;;;;6.83;4.40;;;20.10;99.90;21.70;97042.00;;;;5064974;28;20189;-68
2022/05/05 09:09:32;;;;;;;4.57;3.60;;;20.30;99.90;22.10;97042.00;;;;5063287;28;20204;-68
2022/05/05 09:12:16;;;;;;;5.47;4.43;;;20.40;99.90;21.60;97035.00;;;;5058805;28;20193;-67
2022/05/05 09:14:47;;;;;;;5.33;3.30;;;20.50;98.30;22.00;97038.00;;;;5062344;28;20302;-68
2022/05/05 09:17:18;;;;;;;5.10;3.70;;;20.50;98.00;21.90;97031.00;;;;5062654;28;20192;-67
2022/05/05 09:19:49;;;;;;;4.60;3.70;;;20.60;98.10;21.70;97037.00;;;;5059987;28;20192;-67
2022/05/05 09:22:21;;;;;;;4.40;3.60;;;20.70;97.10;21.40;97026.00;;;;5066108;28;20204;-67
2022/05/05 09:24:52;;;;;;;4.17;3.73;;;20.60;95.60;22.50;97038.00;;;;5056687;28;20279;-68
2022/05/05 09:27:24;;;;;;;4.03;3.30;;;20.80;97.00;22.90;97040.00;;;;5061267;28;20198;-67
2022/05/05 09:30:10;;;;;;;4.20;3.80;;;21.00;97.60;22.60;97040.00;;;;5059592;28;20200;-68
2022/05/05 09:32:41;;;;;;;3.53;3.17;;;21.10;94.30;22.80;97039.00;;;;5066594;28;20410;-68
2022/05/05 09:35:11;;;;;;;4.73;3.53;;;21.30;93.80;23.10;97039.00;;;;5063497;28;20307;-67
2022/05/05 09:37:46;;;;;;;4.47;2.80;;;21.40;93.00;22.80;97036.00;;;;5066456;28;20196;-68
2022/05/05 09:40:18;;;;;;;3.93;3.33;;;21.60;94.00;23.50;97030.00;;;;5068042;28;20215;-68
2022/05/05 09:42:49;;;;;;;4.00;3.60;;;21.70;93.60;23.60;97037.00;;;;5066567;28;20212;-68
2022/05/05 09:45:21;;;;;;;4.77;4.07;;;21.80;91.00;24.10;97042.00;;;;5072195;28;20390;-68
2022/05/05 09:47:52;;;;;;;4.70;2.57;;;22.10;90.10;24.20;97039.00;;;;5071617;28;20200;-68
2022/05/05 09:50:23;;;;;;;3.50;2.83;;;22.30;87.40;23.10;97047.00;;;;5072096;28;20192;-68
2022/05/05 09:58:36;;;;;;;3.00;2.70;;;22.30;80.90;24.00;97022.00;;;;5064462;28;20200;-67
2022/05/05 10:01:08;;;;;;;3.67;2.97;;;22.30;77.50;24.90;97019.00;;;;5070760;28;20250;-68
2022/05/05 10:04:05;;;;;;;3.27;2.97;;;22.70;77.20;26.00;97034.00;;;;5071505;28;20242;-68
2022/05/05 10:06:35;;;;;;;3.73;3.47;;;23.20;76.40;26.00;97041.00;;;;5062935;28;20192;-68
2022/05/05 10:09:07;;;;;;;2.73;2.53;;;23.60;77.30;24.60;97028.00;;;;5060180;28;20284;-68
2022/05/05 10:11:36;;;;;;;3.03;2.73;;;23.50;69.50;24.70;97015.00;;;;5059305;28;20187;-67
2022/05/05 10:14:07;;;;;;;3.73;2.97;;;23.50;68.60;24.20;97041.00;;;;5064124;28;20255;-67
2022/05/05 10:16:38;;;;;;;3.10;2.80;;;23.40;65.80;22.70;97026.00;;;;5068447;28;20199;-67
2022/05/05 10:19:07;;;;;;;3.67;2.20;;;23.00;65.30;22.70;97015.00;;;;5066938;28;20204;-67
2022/05/05 10:21:56;;;;;;;4.23;2.40;;;22.50;66.20;23.40;97033.00;;;;5071184;28;20191;-68
2022/05/05 10:24:29;;;;;;;3.33;2.80;;;22.40;67.40;23.80;97039.00;;;;5070713;28;20216;-68
2022/05/05 10:27:01;;;;;;;2.87;2.57;;;22.40;67.10;24.20;97050.00;;;;5071050;28;20219;-67
2022/05/05 10:29:40;;;;;;;3.37;2.73;;;22.50;69.70;24.10;97052.00;;;;5071326;28;20199;-68
2022/05/05 10:32:12;;;;;;;3.27;2.57;;;22.60;69.90;23.40;97042.00;;;;5059906;28;20205;-68
2022/05/05 10:34:44;;;;;;;3.07;2.77;;;22.60;67.90;23.90;97036.00;;;;5060275;28;20237;-68
2022/05/05 10:37:16;;;;;;;3.50;2.57;;;22.60;70.70;23.90;97058.00;;;;5059492;28;20227;-69
2022/05/05 10:40:03;;;;;;;3.03;2.73;;;22.60;69.80;23.60;97062.00;;;;5062588;28;20208;-68
2022/05/05 10:42:39;;;;;;;2.97;2.77;;;22.50;68.50;23.80;97057.00;;;;5061338;28;20302;-68
2022/05/05 10:45:16;;;;;;;2.70;2.50;;;22.30;69.30;23.80;97051.00;;;;5054507;28;20195;-68
2022/05/05 10:48:29;;;;;;;3.23;3.00;;;22.30;70.60;22.90;97054.00;;;;5065461;28;20200;-68
2022/05/05 10:51:15;;;;;;;3.80;2.67;;;22.10;67.00;22.70;97055.00;;;;5068704;28;20188;-68
2022/05/05 10:53:44;;;;;;;6.03;3.53;;;21.90;68.00;22.70;97064.00;;;;5070522;28;20281;-68
2022/05/05 10:56:32;;;;;;;3.70;3.27;;;21.60;68.30;22.40;97054.00;;;;5070191;28;20224;-68
2022/05/05 10:59:05;;;;;;;3.50;3.20;;;21.50;70.00;22.20;97042.00;;;;5065310;28;20196;-67
2022/05/05 11:01:58;;;;;;;3.63;3.33;;;21.30;69.30;21.90;97041.00;;;;5070693;28;20279;-68
2022/05/05 11:04:32;;;;;;;4.00;3.60;;;21.00;68.40;22.10;97040.00;;;;5070182;28;20280;-68
2022/05/05 11:07:39;;;;;;;4.90;3.83;;;21.00;70.20;22.50;97038.00;;;;5069527;28;20188;-68
2022/05/05 11:10:44;;;;;;;5.27;3.40;;;20.90;71.50;22.60;97038.00;;;;5067120;28;20210;-68
2022/05/05 11:13:37;;;;;;;3.57;3.27;;;21.00;73.70;23.00;97022.00;;;;5062981;28;20227;-68
2022/05/05 11:22:17;;;;;;;3.20;2.60;;;21.60;82.60;22.90;97038.00;;;;5065851;28;20202;-68
2022/05/05 11:24:50;;;;;;;3.30;3.00;;;21.70;77.50;22.00;97030.00;;;;5069851;28;20250;-68
2022/05/05 11:27:22;;;;;;;5.97;2.80;;;21.50;73.20;21.90;97024.00;;;;5070153;28;20278;-67
2022/05/05 11:29:54;;;;;;;3.23;2.83;;;21.20;71.80;21.90;97032.00;;;;5056447;28;20206;-68
2022/05/05 11:32:30;;;;;;;4.23;3.20;;;21.00;72.50;22.30;97020.00;;;;5066031;28;20196;-68
2022/05/05 11:34:58;;;;;;;3.33;3.03;;;21.00;69.90;24.10;96963.00;;;;5063216;28;20219;-68
2022/05/05 11:37:28;;;;;;;5.27;3.07;;;21.50;70.90;25.00;96996.00;;;;5069465;28;20187;-68
2022/05/05 11:39:58;;;;;;;3.73;3.43;;;22.10;70.20;26.10;96992.00;;;;5062899;28;20226;-68
2022/05/05 11:42:29;;;;;;;3.40;2.77;;;22.80;71.30;26.60;96980.00;;;;5058199;28;20326;-68
2022/05/05 11:44:58;;;;;;;2.83;2.63;;;23.50;71.70;27.20;96988.00;;;;5054445;28;20245;-68
2022/05/05 11:47:27;;;;;;;3.50;2.33;;;24.20;69.80;25.20;97017.00;;;;5056524;28;20291;-67
2022/05/05 11:49:58;;;;;;;3.20;2.50;;;24.50;62.30;22.20;96933.00;;;;5062094;28;20201;-66
2022/05/05 11:52:27;;;;;;;2.47;2.00;;;23.40;63.60;21.60;96983.00;;;;5052851;28;20200;-68